Time;durP1;ratioP1;P1;durP2;ratioP2;P2;SDS_P1;SDS_P2;PMS_P1;PMS_P2;Temp;Humidity;BMP_temperature;BMP_pressure;BME280_temperature;BME280_humidity;BME280_pressure;Samples;Min_cycle;Max_cycle;Signal;HPM_P1;HPM_P2
2021/12/26 00:00:45;;;;;;;1.00;0.60;;;-2.70;38.30;;;;;;5079300;28;20171;-49
2021/12/26 00:03:12;;;;;;;1.48;1.10;;;-2.70;38.30;;;;;;5096168;28;20539;-49
2021/12/26 00:05:40;;;;;;;1.77;1.10;;;-2.70;38.00;;;;;;5095281;28;20247;-49
2021/12/26 00:08:08;;;;;;;1.20;0.93;;;-2.70;37.90;;;;;;5096086;28;20164;-49
2021/12/26 00:10:35;;;;;;;1.60;0.90;;;-2.80;38.00;;;;;;5095179;28;20621;-49
2021/12/26 00:13:03;;;;;;;3.13;2.90;;;-2.80;38.30;;;;;;5096173;28;20179;-49
2021/12/26 00:15:31;;;;;;;1.73;1.50;;;-2.80;38.50;;;;;;5095107;28;20271;-49
2021/12/26 00:17:58;;;;;;;2.63;1.63;;;-2.70;38.50;;;;;;5096449;28;20229;-49
2021/12/26 00:20:27;;;;;;;2.75;2.38;;;-2.80;38.50;;;;;;5096136;28;20171;-48
2021/12/26 00:22:54;;;;;;;2.17;1.48;;;-2.80;38.60;;;;;;5095746;28;20234;-49
2021/12/26 00:25:21;;;;;;;32.20;2.80;;;-2.80;38.70;;;;;;5096211;28;20254;-49
2021/12/26 00:27:49;;;;;;;1.70;0.90;;;-2.80;38.60;;;;;;5095900;28;20168;-49
2021/12/26 00:30:19;;;;;;;2.22;0.60;;;-2.80;38.60;;;;;;5095123;28;20577;-49
2021/12/26 00:32:48;;;;;;;2.63;1.95;;;-2.80;38.10;;;;;;5094760;28;20183;-48
2021/12/26 00:35:18;;;;;;;1.80;1.70;;;-2.90;38.10;;;;;;5094844;28;20167;-49
2021/12/26 00:37:47;;;;;;;1.38;0.80;;;-2.90;38.20;;;;;;5094854;28;20240;-48
2021/12/26 00:40:16;;;;;;;2.72;2.30;;;-2.90;38.10;;;;;;5094119;28;20218;-49
2021/12/26 00:42:44;;;;;;;0.90;0.40;;;-2.90;38.10;;;;;;5094761;28;20192;-48
2021/12/26 00:45:11;;;;;;;2.55;1.70;;;-3.00;37.70;;;;;;5078437;28;20164;-48
2021/12/26 00:47:40;;;;;;;5.45;1.25;;;-3.00;37.90;;;;;;5094683;28;20160;-49
2021/12/26 00:50:11;;;;;;;2.30;1.63;;;-3.00;38.30;;;;;;5094446;28;20161;-49
2021/12/26 00:52:38;;;;;;;2.08;1.80;;;-3.00;38.20;;;;;;5078051;28;20156;-47
2021/12/26 00:55:09;;;;;;;6.05;1.23;;;-3.00;38.20;;;;;;5077782;28;20187;-49
2021/12/26 00:57:36;;;;;;;1.92;1.83;;;-3.00;37.80;;;;;;5095283;28;20297;-48
2021/12/26 01:00:08;;;;;;;2.08;1.45;;;-3.00;37.90;;;;;;5077646;28;20167;-48
2021/12/26 01:02:36;;;;;;;1.70;1.30;;;-3.10;37.90;;;;;;5094355;28;20215;-49
2021/12/26 01:05:05;;;;;;;1.70;1.30;;;-3.10;37.80;;;;;;5095120;28;20163;-49
2021/12/26 01:07:49;;;;;;;7.43;2.42;;;-3.10;37.80;;;;;;5095210;28;20180;-49
2021/12/26 01:10:19;;;;;;;1.40;0.80;;;-3.10;38.10;;;;;;5094359;28;20179;-49
2021/12/26 01:12:48;;;;;;;1.40;1.25;;;-3.10;37.80;;;;;;5094159;28;20171;-49
2021/12/26 01:15:16;;;;;;;3.10;1.92;;;-3.20;38.00;;;;;;5094124;28;20168;-49
2021/12/26 01:17:44;;;;;;;1.23;1.13;;;-3.20;37.70;;;;;;5094990;28;20590;-49
2021/12/26 01:20:28;;;;;;;2.22;1.88;;;-3.20;37.90;;;;;;5095104;28;20171;-49
2021/12/26 01:22:56;;;;;;;1.20;0.95;;;-3.20;38.00;;;;;;5094099;28;20198;-49
2021/12/26 01:25:23;;;;;;;1.58;0.70;;;-3.20;37.90;;;;;;5095322;28;20198;-49
2021/12/26 01:27:50;;;;;;;1.33;0.98;;;-3.20;37.90;;;;;;5095064;28;20173;-48
2021/12/26 01:30:18;;;;;;;1.52;0.77;;;-3.20;38.00;;;;;;5095061;28;20172;-49
2021/12/26 01:32:45;;;;;;;1.10;0.40;;;-3.20;38.00;;;;;;5094160;28;20190;-48
2021/12/26 01:35:13;;;;;;;2.30;1.77;;;-3.20;37.70;;;;;;5094006;28;20507;-48
2021/12/26 01:37:40;;;;;;;6.25;3.55;;;-3.20;37.80;;;;;;5096000;28;20171;-48
2021/12/26 01:40:07;;;;;;;1.58;1.20;;;-3.20;37.90;;;;;;5098832;28;20275;-49
2021/12/26 01:42:35;;;;;;;1.58;1.38;;;-3.20;37.80;;;;;;5098138;28;20291;-49
2021/12/26 01:45:03;;;;;;;2.45;0.82;;;-3.20;37.70;;;;;;5098823;28;20164;-49
2021/12/26 01:47:31;;;;;;;2.63;2.38;;;-3.20;37.80;;;;;;5097955;28;20601;-48
2021/12/26 01:49:58;;;;;;;1.38;0.93;;;-3.20;38.00;;;;;;5097970;28;20177;-48
2021/12/26 01:52:26;;;;;;;3.67;1.55;;;-3.20;37.60;;;;;;5097976;28;20187;-49
2021/12/26 01:55:11;;;;;;;1.48;0.95;;;-3.30;37.50;;;;;;5097928;28;20167;-48
2021/12/26 01:57:39;;;;;;;1.38;0.98;;;-3.40;37.10;;;;;;5083427;28;20603;-49
2021/12/26 02:00:07;;;;;;;2.95;1.63;;;-3.40;37.40;;;;;;5098811;28;20309;-49
2021/12/26 02:02:34;;;;;;;3.20;1.08;;;-3.40;37.70;;;;;;5097488;28;20207;-47
2021/12/26 02:05:02;;;;;;;1.90;1.63;;;-3.50;37.20;;;;;;5098758;28;20484;-48
2021/12/26 02:07:30;;;;;;;3.30;2.30;;;-3.50;37.30;;;;;;5097736;28;20592;-48
2021/12/26 02:09:57;;;;;;;1.10;0.68;;;-3.60;37.10;;;;;;5097741;28;20612;-49
2021/12/26 02:12:24;;;;;;;3.58;1.60;;;-3.60;37.20;;;;;;5097686;28;20164;-48
2021/12/26 02:14:53;;;;;;;1.55;1.02;;;-3.60;37.70;;;;;;5098276;28;20171;-49
2021/12/26 02:17:20;;;;;;;1.65;1.55;;;-3.60;37.60;;;;;;5098335;28;20489;-49
2021/12/26 02:19:51;;;;;;;1.10;0.77;;;-3.50;37.30;;;;;;5097268;28;20168;-48
2021/12/26 02:22:25;;;;;;;1.42;1.15;;;-3.60;36.60;;;;;;5097246;28;20539;-48
2021/12/26 02:25:24;;;;;;;1.10;0.93;;;-3.60;37.00;;;;;;5081632;28;20604;-48
2021/12/26 02:27:52;;;;;;;0.90;0.30;;;-3.60;37.50;;;;;;5084667;28;20171;-49
2021/12/26 02:30:19;;;;;;;0.90;0.52;;;-3.70;36.80;;;;;;5097987;28;20163;-49
2021/12/26 02:32:48;;;;;;;1.05;0.65;;;-3.80;36.70;;;;;;5097279;28;20175;-49
2021/12/26 02:35:17;;;;;;;1.10;0.73;;;-3.80;37.00;;;;;;5098102;28;20190;-48
2021/12/26 02:37:45;;;;;;;4.28;3.30;;;-3.80;37.30;;;;;;5097011;28;20525;-48
2021/12/26 02:40:13;;;;;;;1.00;0.50;;;-3.80;37.30;;;;;;5079836;28;20219;-49
2021/12/26 02:42:40;;;;;;;1.73;0.65;;;-3.70;37.40;;;;;;5097790;28;20211;-49
2021/12/26 02:45:08;;;;;;;1.50;0.98;;;-3.70;37.40;;;;;;5097685;28;20163;-48
2021/12/26 02:47:41;;;;;;;1.20;0.93;;;-3.70;37.40;;;;;;5097062;28;20185;-48
2021/12/26 02:50:19;;;;;;;1.20;0.90;;;-3.70;37.20;;;;;;5097469;28;20152;-49
2021/12/26 02:52:47;;;;;;;3.35;2.70;;;-3.70;37.30;;;;;;5096596;28;20179;-49
2021/12/26 02:55:17;;;;;;;1.33;0.80;;;-3.70;37.20;;;;;;5097052;28;20187;-48
2021/12/26 02:57:53;;;;;;;2.17;2.05;;;-3.80;37.10;;;;;;5080314;28;20205;-48
2021/12/26 03:00:24;;;;;;;1.70;1.60;;;-3.80;37.10;;;;;;5097712;28;20642;-48
2021/12/26 03:02:56;;;;;;;3.60;1.40;;;-3.80;36.80;;;;;;5096667;28;20193;-49
2021/12/26 03:05:30;;;;;;;1.58;1.45;;;-3.80;37.00;;;;;;5096901;28;20187;-49
2021/12/26 03:07:58;;;;;;;1.23;0.82;;;-3.80;37.10;;;;;;5096591;28;20170;-48
2021/12/26 03:10:26;;;;;;;2.10;1.90;;;-3.90;36.80;;;;;;5096369;28;20179;-49
2021/12/26 03:12:57;;;;;;;1.52;1.00;;;-3.90;36.80;;;;;;5096259;28;20324;-49
2021/12/26 03:15:27;;;;;;;2.20;1.80;;;-3.90;37.30;;;;;;5097185;28;20170;-48
2021/12/26 03:17:57;;;;;;;14.40;1.05;;;-3.90;37.50;;;;;;5097112;28;20175;-48
2021/12/26 03:20:30;;;;;;;0.98;0.55;;;-3.90;37.50;;;;;;5096316;28;20290;-49
2021/12/26 03:23:00;;;;;;;5.38;2.50;;;-4.00;36.90;;;;;;5096156;28;20639;-49
2021/12/26 03:25:29;;;;;;;1.17;0.95;;;-4.00;37.00;;;;;;5096209;28;20312;-48
2021/12/26 03:27:57;;;;;;;7.13;2.75;;;-4.00;36.90;;;;;;5096838;28;20589;-49
2021/12/26 03:30:28;;;;;;;3.50;2.63;;;-4.00;37.00;;;;;;5096145;28;20160;-49
2021/12/26 03:32:59;;;;;;;1.50;0.98;;;-4.00;37.90;;;;;;5096965;28;20167;-49
2021/12/26 03:35:29;;;;;;;1.40;0.88;;;-4.00;36.80;;;;;;5096009;28;20167;-49
2021/12/26 03:37:58;;;;;;;1.90;1.52;;;-4.00;37.00;;;;;;5096695;28;20465;-49
2021/12/26 03:40:26;;;;;;;1.58;1.48;;;-4.00;37.20;;;;;;5096526;28;20667;-48
2021/12/26 03:42:54;;;;;;;3.92;3.55;;;-4.10;37.40;;;;;;5097093;28;20198;-49
2021/12/26 03:45:22;;;;;;;0.98;0.40;;;-4.00;37.20;;;;;;5095975;28;20161;-49
2021/12/26 03:47:50;;;;;;;2.75;1.92;;;-4.00;37.10;;;;;;5095853;28;20167;-49
2021/12/26 03:50:20;;;;;;;6.88;1.10;;;-4.00;37.10;;;;;;5095576;28;20576;-49
2021/12/26 03:52:51;;;;;;;4.60;2.70;;;-4.10;36.70;;;;;;5096629;28;20244;-49
2021/12/26 03:55:19;;;;;;;1.40;1.00;;;-4.10;36.50;;;;;;5095804;28;20167;-49
2021/12/26 03:57:47;;;;;;;1.35;0.77;;;-4.20;36.50;;;;;;5096422;28;20171;-48
2021/12/26 04:00:15;;;;;;;1.95;1.75;;;-4.20;36.60;;;;;;5078259;28;20173;-48
2021/12/26 04:02:43;;;;;;;1.27;0.63;;;-4.20;36.70;;;;;;5096434;28;20191;-49
2021/12/26 04:05:12;;;;;;;3.15;2.85;;;-4.20;36.50;;;;;;5095259;28;20188;-49
2021/12/26 04:07:39;;;;;;;1.40;1.30;;;-4.30;36.50;;;;;;5095250;28;20190;-48
2021/12/26 04:10:08;;;;;;;1.35;1.02;;;-4.30;37.00;;;;;;5095399;28;20250;-48
2021/12/26 04:12:37;;;;;;;5.53;1.83;;;-4.30;36.90;;;;;;5078642;28;20179;-48
2021/12/26 04:15:11;;;;;;;1.95;1.75;;;-4.20;37.00;;;;;;5095361;28;20620;-49
2021/12/26 04:17:38;;;;;;;5.32;3.33;;;-4.30;36.30;;;;;;5096452;28;20181;-49
2021/12/26 04:20:08;;;;;;;10.77;1.98;;;-4.30;36.60;;;;;;5095832;28;20236;-48
2021/12/26 04:22:35;;;;;;;0.90;0.40;;;-4.30;37.00;;;;;;5095855;28;20632;-48
2021/12/26 04:25:04;;;;;;;5.25;4.75;;;-4.30;36.60;;;;;;5094902;28;20174;-48
2021/12/26 04:27:32;;;;;;;0.90;0.32;;;-4.30;36.50;;;;;;5078767;28;20167;-49
2021/12/26 04:29:59;;;;;;;1.23;0.98;;;-4.30;36.70;;;;;;5094731;28;20489;-49
2021/12/26 04:32:27;;;;;;;2.75;1.20;;;-4.30;36.60;;;;;;5077746;28;20179;-48
2021/12/26 04:34:54;;;;;;;1.00;0.73;;;-4.30;36.30;;;;;;5095902;28;20173;-49
2021/12/26 04:37:22;;;;;;;1.05;0.85;;;-4.40;36.30;;;;;;5095565;28;20190;-48
2021/12/26 04:39:49;;;;;;;1.45;1.35;;;-4.40;36.50;;;;;;5077896;28;20655;-49
2021/12/26 04:42:17;;;;;;;0.93;0.45;;;-4.40;36.10;;;;;;5095384;28;20505;-47
2021/12/26 04:44:44;;;;;;;4.40;1.52;;;-4.50;36.40;;;;;;5095471;28;20246;-48
2021/12/26 04:47:11;;;;;;;1.15;1.05;;;-4.50;36.50;;;;;;5095359;28;20256;-48
2021/12/26 04:49:39;;;;;;;2.80;2.17;;;-4.50;36.40;;;;;;5094495;28;20160;-49
2021/12/26 04:52:06;;;;;;;1.20;0.88;;;-4.50;36.50;;;;;;5095438;28;20620;-48
2021/12/26 04:54:34;;;;;;;1.42;1.05;;;-4.50;36.20;;;;;;5095313;28;20229;-48
2021/12/26 04:57:01;;;;;;;1.63;1.20;;;-4.50;36.50;;;;;;5077973;28;20229;-49
2021/12/26 04:59:28;;;;;;;1.55;1.42;;;-4.50;37.40;;;;;;5094609;28;20516;-49
2021/12/26 05:01:56;;;;;;;1.63;1.30;;;-4.50;36.70;;;;;;5094231;28;20198;-48
2021/12/26 05:04:23;;;;;;;1.20;0.75;;;-4.50;36.40;;;;;;5095381;28;20159;-49
2021/12/26 05:06:50;;;;;;;1.67;1.58;;;-4.50;36.50;;;;;;5095266;28;20197;-49
2021/12/26 05:09:18;;;;;;;1.30;0.80;;;-4.50;36.60;;;;;;5094384;28;20228;-48
2021/12/26 05:11:46;;;;;;;1.25;1.05;;;-4.50;36.50;;;;;;5094339;28;20266;-48
2021/12/26 05:14:13;;;;;;;3.13;0.98;;;-4.50;36.50;;;;;;5094189;28;20237;-49
2021/12/26 05:16:40;;;;;;;1.55;1.05;;;-4.50;36.80;;;;;;5094162;28;20235;-48
2021/12/26 05:19:08;;;;;;;15.88;1.98;;;-4.50;36.70;;;;;;5095293;28;20596;-49
2021/12/26 05:21:35;;;;;;;1.70;1.60;;;-4.50;36.70;;;;;;5094986;28;20191;-48
2021/12/26 05:24:02;;;;;;;3.05;1.13;;;-4.40;36.70;;;;;;5094167;28;20171;-48
2021/12/26 05:26:30;;;;;;;9.55;1.90;;;-4.40;36.50;;;;;;5094886;28;20623;-48
2021/12/26 05:28:57;;;;;;;3.05;1.23;;;-4.40;37.00;;;;;;5094854;28;20542;-48
2021/12/26 05:31:25;;;;;;;1.27;1.17;;;-4.40;36.80;;;;;;5094320;28;20171;-48
2021/12/26 05:33:52;;;;;;;1.20;0.80;;;-4.40;36.80;;;;;;5094330;28;20166;-48
2021/12/26 05:36:19;;;;;;;1.55;1.02;;;-4.40;37.00;;;;;;5094927;28;20217;-48
2021/12/26 05:38:47;;;;;;;1.00;0.55;;;-4.40;36.90;;;;;;5094030;28;20163;-48
2021/12/26 05:41:15;;;;;;;1.80;1.70;;;-4.40;36.90;;;;;;5094945;28;20618;-48
2021/12/26 05:43:42;;;;;;;2.50;0.90;;;-4.40;36.80;;;;;;5094956;28;20469;-49
2021/12/26 05:46:10;;;;;;;3.60;1.02;;;-4.40;37.10;;;;;;5094740;28;20190;-48
2021/12/26 05:48:37;;;;;;;2.80;2.22;;;-4.40;37.00;;;;;;5094777;28;20168;-49
2021/12/26 05:51:05;;;;;;;4.50;0.90;;;-4.40;37.10;;;;;;5077146;28;20171;-48
2021/12/26 05:53:32;;;;;;;3.70;1.40;;;-4.40;36.80;;;;;;5094679;28;20175;-47
2021/12/26 05:55:59;;;;;;;2.75;1.70;;;-4.50;36.50;;;;;;5093961;28;20175;-48
2021/12/26 05:58:27;;;;;;;2.55;2.13;;;-4.50;36.30;;;;;;5094860;28;20171;-47
2021/12/26 06:00:55;;;;;;;2.13;1.55;;;-4.50;36.60;;;;;;5094799;28;20175;-48
2021/12/26 06:03:22;;;;;;;0.90;0.30;;;-4.50;36.70;;;;;;5093790;28;20194;-49
2021/12/26 06:05:50;;;;;;;1.08;0.73;;;-4.50;36.80;;;;;;5094558;28;20163;-48
2021/12/26 06:08:17;;;;;;;1.35;1.15;;;-4.50;37.00;;;;;;5094571;28;20178;-49
2021/12/26 06:10:45;;;;;;;1.00;0.52;;;-4.50;36.90;;;;;;5094442;28;20171;-49
2021/12/26 06:13:12;;;;;;;4.45;3.75;;;-4.50;36.60;;;;;;5094973;28;20548;-48
2021/12/26 06:15:40;;;;;;;0.90;0.30;;;-4.60;36.40;;;;;;5093589;28;20202;-48
2021/12/26 06:18:07;;;;;;;1.67;1.58;;;-4.60;36.30;;;;;;5093546;28;20159;-48
2021/12/26 06:20:34;;;;;;;1.20;0.60;;;-4.60;36.90;;;;;;5094587;28;20178;-48
2021/12/26 06:23:02;;;;;;;2.30;2.10;;;-4.60;36.50;;;;;;5093682;28;20199;-49
2021/12/26 06:25:29;;;;;;;0.80;0.20;;;-4.60;36.60;;;;;;5097214;28;20158;-49
2021/12/26 06:27:57;;;;;;;1.48;1.38;;;-4.60;36.60;;;;;;5098106;28;20228;-48
2021/12/26 06:30:25;;;;;;;1.77;1.67;;;-4.60;36.80;;;;;;5097145;28;20168;-49
2021/12/26 06:32:52;;;;;;;3.95;1.92;;;-4.60;36.70;;;;;;5097104;28;20167;-48
2021/12/26 06:35:19;;;;;;;4.10;1.15;;;-4.60;36.70;;;;;;5098303;28;20191;-48
2021/12/26 06:37:47;;;;;;;1.55;1.45;;;-4.60;36.60;;;;;;5097858;28;20207;-49
2021/12/26 06:40:15;;;;;;;1.75;1.35;;;-4.60;36.30;;;;;;5097560;28;20223;-49
2021/12/26 06:42:45;;;;;;;1.13;0.82;;;-4.60;36.60;;;;;;5096871;28;20195;-49
2021/12/26 06:45:15;;;;;;;0.90;0.30;;;-4.60;36.70;;;;;;5097790;28;20171;-49
2021/12/26 06:47:49;;;;;;;17.30;2.42;;;-4.60;36.50;;;;;;5080630;28;20189;-48
2021/12/26 06:50:17;;;;;;;0.90;0.30;;;-4.60;36.70;;;;;;5097795;28;20186;-48
2021/12/26 06:52:45;;;;;;;1.75;0.90;;;-4.60;36.60;;;;;;5097716;28;20259;-48
2021/12/26 06:55:12;;;;;;;2.75;0.60;;;-4.70;36.90;;;;;;5080314;28;20164;-49
2021/12/26 06:57:41;;;;;;;1.90;1.23;;;-4.70;36.80;;;;;;5080106;28;20258;-49
2021/12/26 07:00:12;;;;;;;1.52;1.42;;;-4.70;36.30;;;;;;5097041;28;20249;-49
2021/12/26 07:02:39;;;;;;;1.15;0.77;;;-4.70;36.20;;;;;;5096553;28;20517;-49
2021/12/26 07:05:07;;;;;;;3.95;3.15;;;-4.80;35.90;;;;;;5096444;28;20182;-49
2021/12/26 07:07:35;;;;;;;1.80;1.20;;;-4.80;36.10;;;;;;5097561;28;20224;-48
2021/12/26 07:10:02;;;;;;;0.90;0.40;;;-4.80;36.50;;;;;;5097357;28;20159;-48
2021/12/26 07:12:29;;;;;;;2.10;0.93;;;-4.80;36.50;;;;;;5096362;28;20254;-47
2021/12/26 07:14:57;;;;;;;0.90;0.30;;;-4.80;36.90;;;;;;5097352;28;20262;-49
2021/12/26 07:17:24;;;;;;;0.95;0.47;;;-4.80;37.20;;;;;;5096275;28;20512;-48
2021/12/26 07:19:52;;;;;;;3.65;1.05;;;-4.70;37.10;;;;;;5097042;28;20159;-48
2021/12/26 07:22:19;;;;;;;2.97;2.70;;;-4.70;37.60;;;;;;5096930;28;20273;-49
2021/12/26 07:24:47;;;;;;;0.90;0.35;;;-4.70;36.90;;;;;;5096205;28;20651;-48
2021/12/26 07:27:15;;;;;;;2.65;2.45;;;-4.70;36.80;;;;;;5097062;28;20258;-48
2021/12/26 07:29:43;;;;;;;0.90;0.30;;;-4.70;36.50;;;;;;5079729;28;20185;-49
2021/12/26 07:32:11;;;;;;;1.08;0.65;;;-4.70;36.90;;;;;;5096030;28;20177;-48
2021/12/26 07:34:40;;;;;;;0.90;0.50;;;-4.70;37.10;;;;;;5096197;28;20167;-48
2021/12/26 07:37:08;;;;;;;1.52;1.17;;;-4.60;36.90;;;;;;5096358;28;20554;-49
2021/12/26 07:39:36;;;;;;;1.15;0.98;;;-4.60;36.70;;;;;;5095837;28;20215;-49
2021/12/26 07:42:04;;;;;;;4.40;1.02;;;-4.60;36.40;;;;;;5095898;28;20210;-48
2021/12/26 07:44:31;;;;;;;0.90;0.30;;;-4.60;36.50;;;;;;5095710;28;20165;-49
2021/12/26 07:46:59;;;;;;;2.55;2.30;;;-4.50;36.80;;;;;;5096512;28;20177;-49
2021/12/26 07:49:27;;;;;;;3.47;1.10;;;-4.40;36.80;;;;;;5096493;28;20653;-49
2021/12/26 07:51:56;;;;;;;1.35;1.05;;;-4.40;36.50;;;;;;5095492;28;20191;-49
2021/12/26 07:54:29;;;;;;;1.00;0.50;;;-4.30;36.90;;;;;;5096661;28;20190;-48
2021/12/26 07:56:58;;;;;;;1.38;1.13;;;-4.20;37.00;;;;;;5096341;28;20164;-48
2021/12/26 07:59:26;;;;;;;5.35;1.05;;;-4.20;37.00;;;;;;5096497;28;20194;-49
2021/12/26 08:01:53;;;;;;;1.90;1.65;;;-4.00;37.00;;;;;;5095303;28;20201;-49
2021/12/26 08:04:20;;;;;;;1.63;1.20;;;-3.70;37.00;;;;;;5096274;28;20634;-49
2021/12/26 08:06:48;;;;;;;2.00;1.73;;;-3.30;36.80;;;;;;5096145;28;20531;-49
2021/12/26 08:09:15;;;;;;;2.10;1.85;;;-3.10;36.70;;;;;;5096169;28;20706;-49
2021/12/26 08:11:42;;;;;;;2.40;1.75;;;-2.90;36.10;;;;;;5096560;28;20164;-48
2021/12/26 08:14:09;;;;;;;2.53;1.02;;;-2.70;36.30;;;;;;5096178;28;20168;-49
2021/12/26 08:16:37;;;;;;;2.40;1.92;;;-2.70;36.10;;;;;;5095130;28;20171;-49
2021/12/26 08:19:06;;;;;;;2.85;1.05;;;-2.70;36.20;;;;;;5095924;28;20179;-49
2021/12/26 08:21:34;;;;;;;1.65;1.48;;;-2.70;36.50;;;;;;5095882;28;20176;-49
2021/12/26 08:24:03;;;;;;;1.23;0.88;;;-2.60;36.60;;;;;;5094950;28;20617;-49
2021/12/26 08:26:33;;;;;;;2.10;1.48;;;-2.60;36.60;;;;;;5095002;28;20172;-49
2021/12/26 08:29:00;;;;;;;1.90;1.15;;;-2.40;36.90;;;;;;5095708;28;20178;-49
2021/12/26 08:31:28;;;;;;;3.20;1.85;;;-2.20;36.90;;;;;;5094840;28;20232;-48
2021/12/26 08:33:55;;;;;;;1.10;0.73;;;-2.10;36.90;;;;;;5094654;28;20183;-48
2021/12/26 08:36:23;;;;;;;1.20;1.00;;;-2.10;36.80;;;;;;5095768;28;20598;-49
2021/12/26 08:38:50;;;;;;;2.72;2.17;;;-1.90;37.00;;;;;;5095483;28;20592;-49
2021/12/26 08:41:18;;;;;;;1.30;0.85;;;-1.70;37.10;;;;;;5094594;28;20164;-48
2021/12/26 08:43:46;;;;;;;2.33;1.90;;;-1.50;37.20;;;;;;5095429;28;20273;-49
2021/12/26 08:46:13;;;;;;;1.38;1.27;;;-1.30;37.00;;;;;;5095237;28;20164;-49
2021/12/26 08:48:41;;;;;;;4.22;1.67;;;-1.10;37.00;;;;;;5077877;28;20704;-49
2021/12/26 08:51:08;;;;;;;2.50;2.13;;;-0.90;36.80;;;;;;5095300;28;20593;-48
2021/12/26 08:53:36;;;;;;;2.10;1.85;;;-0.60;36.70;;;;;;5077488;28;20247;-48
2021/12/26 08:56:04;;;;;;;4.50;2.10;;;-0.40;36.60;;;;;;5095440;28;20168;-48
2021/12/26 08:58:31;;;;;;;1.15;0.88;;;-0.20;36.30;;;;;;5094400;28;20168;-47
2021/12/26 09:00:59;;;;;;;14.10;3.63;;;-0.10;36.20;;;;;;5095250;28;20164;-49
2021/12/26 09:03:26;;;;;;;3.53;2.38;;;0.10;36.00;;;;;;5095003;28;20284;-49
2021/12/26 09:05:54;;;;;;;12.40;3.15;;;0.40;35.80;;;;;;5061031;28;20175;-49
2021/12/26 09:08:21;;;;;;;6.85;4.18;;;0.70;35.70;;;;;;5077562;28;20191;-49
2021/12/26 09:10:49;;;;;;;9.00;3.15;;;1.00;35.40;;;;;;5095228;28;20160;-48
2021/12/26 09:13:17;;;;;;;2.55;2.15;;;1.40;35.30;;;;;;5095005;28;20252;-48
2021/12/26 09:15:44;;;;;;;4.90;4.32;;;1.50;35.30;;;;;;5094994;28;20181;-48
2021/12/26 09:18:11;;;;;;;6.00;2.47;;;1.50;35.10;;;;;;5094508;28;20533;-49
2021/12/26 09:20:39;;;;;;;6.32;1.92;;;1.60;35.40;;;;;;5094120;28;20171;-48
2021/12/26 09:23:07;;;;;;;3.63;2.40;;;1.80;35.00;;;;;;5094028;28;20621;-49
2021/12/26 09:25:34;;;;;;;2.95;1.65;;;1.80;35.10;;;;;;5095118;28;20195;-50
2021/12/26 09:28:01;;;;;;;1.65;1.27;;;1.90;35.30;;;;;;5093972;28;20166;-48
2021/12/26 09:30:30;;;;;;;1.83;1.10;;;1.90;34.30;;;;;;5094937;28;20165;-49
2021/12/26 09:32:57;;;;;;;3.17;2.00;;;1.80;34.60;;;;;;5094088;28;20182;-48
2021/12/26 09:35:25;;;;;;;6.22;2.22;;;1.80;34.90;;;;;;5093968;28;20188;-49
2021/12/26 09:37:53;;;;;;;1.83;1.30;;;1.80;35.70;;;;;;5094742;28;20167;-48
2021/12/26 09:40:21;;;;;;;1.52;1.15;;;1.90;36.10;;;;;;5093573;28;20213;-50
2021/12/26 09:42:48;;;;;;;7.70;2.13;;;2.30;36.40;;;;;;5093856;28;20357;-50
2021/12/26 09:45:18;;;;;;;4.43;2.42;;;2.90;36.00;;;;;;5093977;28;20154;-49
2021/12/26 09:47:49;;;;;;;4.38;3.20;;;3.50;34.50;;;;;;5094599;28;20243;-47
2021/12/26 09:50:21;;;;;;;19.15;3.67;;;4.00;34.70;;;;;;5093738;28;20166;-47
2021/12/26 09:52:50;;;;;;;5.40;2.33;;;4.30;33.50;;;;;;5094054;28;20181;-46
2021/12/26 09:55:17;;;;;;;13.75;3.75;;;4.30;33.90;;;;;;5093986;28;20178;-47
2021/12/26 09:57:44;;;;;;;6.97;2.65;;;4.30;34.10;;;;;;5093831;28;20169;-47
2021/12/26 10:00:27;;;;;;;1.90;1.50;;;4.40;34.60;;;;;;5098247;28;20162;-47
2021/12/26 10:03:17;;;;;;;6.45;3.40;;;4.50;33.60;;;;;;5098367;28;20187;-47
2021/12/26 10:06:02;;;;;;;5.32;2.53;;;4.60;32.40;;;;;;5097752;28;20169;-48
2021/12/26 10:08:32;;;;;;;4.95;2.13;;;5.40;31.40;;;;;;5098580;28;20168;-47
2021/12/26 10:11:16;;;;;;;2.45;1.25;;;5.90;29.30;;;;;;5098562;28;20163;-47
2021/12/26 10:13:48;;;;;;;3.38;1.50;;;6.60;30.80;;;;;;5097808;28;20589;-47
2021/12/26 10:16:18;;;;;;;4.20;2.17;;;7.50;30.00;;;;;;5097625;28;20168;-47
2021/12/26 10:18:46;;;;;;;2.35;1.48;;;8.30;28.50;;;;;;5080813;28;20470;-48
2021/12/26 10:21:34;;;;;;;3.33;1.58;;;9.00;26.00;;;;;;5098333;28;20164;-47
2021/12/26 10:24:08;;;;;;;1.98;1.40;;;9.40;24.90;;;;;;5097347;28;20481;-47
2021/12/26 10:26:37;;;;;;;1.55;0.88;;;10.10;24.50;;;;;;5098101;28;20222;-48
2021/12/26 10:29:16;;;;;;;3.20;1.45;;;10.60;24.10;;;;;;5097172;28;20160;-47
2021/12/26 10:31:49;;;;;;;3.17;2.08;;;11.10;24.30;;;;;;5097937;28;20159;-47
2021/12/26 10:34:26;;;;;;;2.95;1.80;;;11.90;22.60;;;;;;5098413;28;20161;-47
2021/12/26 10:36:56;;;;;;;3.08;1.35;;;12.30;20.40;;;;;;5097377;28;20317;-48
2021/12/26 10:39:32;;;;;;;3.42;2.00;;;12.40;21.00;;;;;;5096624;28;20286;-48
2021/12/26 10:42:02;;;;;;;2.88;1.88;;;12.90;20.60;;;;;;5096849;28;20191;-47
2021/12/26 10:44:34;;;;;;;2.00;1.30;;;13.40;20.10;;;;;;5097055;28;20485;-47
2021/12/26 10:47:13;;;;;;;2.22;1.25;;;14.00;19.90;;;;;;5096746;28;20210;-48
2021/12/26 10:49:48;;;;;;;3.70;1.52;;;14.50;19.00;;;;;;5097907;28;20160;-47
2021/12/26 10:52:22;;;;;;;3.17;2.00;;;14.80;18.40;;;;;;5097522;28;20160;-48
2021/12/26 10:54:51;;;;;;;4.38;2.10;;;14.80;17.20;;;;;;5097606;28;20159;-47
2021/12/26 10:57:22;;;;;;;3.58;1.63;;;14.60;18.60;;;;;;5080524;28;20172;-47
2021/12/26 11:00:05;;;;;;;3.72;1.92;;;14.10;18.90;;;;;;5063561;28;20561;-47
2021/12/26 11:02:34;;;;;;;4.63;1.92;;;13.60;19.60;;;;;;5096433;28;20192;-47
2021/12/26 11:05:09;;;;;;;5.32;1.42;;;13.00;19.00;;;;;;5097367;28;20170;-48
2021/12/26 11:07:52;;;;;;;6.55;1.35;;;12.40;19.30;;;;;;5096440;28;20148;-47
2021/12/26 11:10:24;;;;;;;2.67;0.90;;;11.90;19.00;;;;;;5096579;28;20161;-47
2021/12/26 11:12:55;;;;;;;4.85;2.00;;;11.50;19.00;;;;;;5080281;28;20685;-49
2021/12/26 11:15:25;;;;;;;1.83;1.30;;;11.10;18.50;;;;;;5096392;28;20156;-47
2021/12/26 11:18:05;;;;;;;2.22;0.80;;;10.20;17.50;;;;;;5097311;28;20172;-47
2021/12/26 11:20:43;;;;;;;4.70;1.15;;;9.40;19.40;;;;;;5096432;28;20159;-48
2021/12/26 11:23:13;;;;;;;1.50;0.60;;;8.90;19.50;;;;;;5097505;28;20633;-47
2021/12/26 11:25:51;;;;;;;1.25;0.65;;;8.30;18.60;;;;;;5096221;28;20193;-47
2021/12/26 11:28:26;;;;;;;2.20;1.40;;;7.80;21.10;;;;;;5080214;28;20156;-47
2021/12/26 11:31:01;;;;;;;2.75;1.35;;;7.60;19.30;;;;;;5096055;28;20250;-47
2021/12/26 11:33:28;;;;;;;2.50;1.13;;;7.70;21.70;;;;;;5095930;28;20189;-48
2021/12/26 11:35:57;;;;;;;1.30;0.50;;;8.10;18.70;;;;;;5095908;28;20191;-47
2021/12/26 11:38:27;;;;;;;1.90;0.80;;;8.60;18.90;;;;;;5096694;28;20175;-47
2021/12/26 11:41:05;;;;;;;1.10;0.43;;;9.20;18.80;;;;;;5095811;28;20210;-47
2021/12/26 11:43:44;;;;;;;2.53;1.05;;;9.60;18.10;;;;;;5096613;28;20200;-47
2021/12/26 11:46:40;;;;;;;1.17;0.57;;;9.40;19.10;;;;;;5095537;28;20623;-48
2021/12/26 11:49:44;;;;;;;1.40;0.85;;;9.10;18.80;;;;;;5096625;28;20552;-47
2021/12/26 11:52:49;;;;;;;2.05;1.25;;;8.90;18.90;;;;;;5096749;28;20160;-47
2021/12/26 11:55:33;;;;;;;1.20;0.50;;;9.10;19.30;;;;;;5096324;28;20176;-47
2021/12/26 11:58:29;;;;;;;3.83;0.80;;;9.00;18.00;;;;;;5096537;28;20512;-47
2021/12/26 12:01:00;;;;;;;1.20;0.60;;;8.40;19.00;;;;;;5096675;28;20603;-47
2021/12/26 12:03:30;;;;;;;2.17;1.00;;;8.10;19.30;;;;;;5096308;28;20317;-48
2021/12/26 12:06:00;;;;;;;4.20;1.48;;;7.70;19.00;;;;;;5096499;28;20164;-47
2021/12/26 12:08:31;;;;;;;1.67;1.08;;;7.60;20.80;;;;;;5078883;28;20182;-47
2021/12/26 12:11:02;;;;;;;1.42;0.73;;;7.30;19.40;;;;;;5095272;28;20670;-47
2021/12/26 12:13:55;;;;;;;2.20;0.90;;;7.20;20.70;;;;;;5078387;28;20225;-46
2021/12/26 12:16:27;;;;;;;4.32;1.70;;;7.10;19.90;;;;;;5095103;28;20589;-47
2021/12/26 12:19:10;;;;;;;1.67;1.20;;;7.20;20.00;;;;;;5096023;28;20497;-47
2021/12/26 12:21:48;;;;;;;1.33;0.60;;;7.40;20.30;;;;;;5095550;28;20297;-47
2021/12/26 12:24:25;;;;;;;4.40;1.15;;;7.60;20.00;;;;;;5078376;28;20612;-46
2021/12/26 12:26:54;;;;;;;1.20;0.60;;;8.00;19.70;;;;;;5094872;28;20604;-47
2021/12/26 12:29:30;;;;;;;1.20;0.65;;;8.60;20.60;;;;;;5095879;28;20478;-47
2021/12/26 12:32:09;;;;;;;2.45;1.10;;;9.40;18.40;;;;;;5095881;28;20161;-47
2021/12/26 12:34:51;;;;;;;3.95;1.05;;;10.20;17.40;;;;;;5095897;28;20161;-47
2021/12/26 12:37:44;;;;;;;1.92;0.93;;;10.80;17.10;;;;;;5096052;28;20164;-47
2021/12/26 12:40:37;;;;;;;10.05;1.38;;;11.20;16.40;;;;;;5095118;28;20294;-47
2021/12/26 12:43:07;;;;;;;5.15;2.00;;;11.70;16.80;;;;;;5095403;28;20277;-47
2021/12/26 12:45:53;;;;;;;1.85;0.80;;;11.90;13.60;;;;;;5095632;28;20166;-47
2021/12/26 12:48:44;;;;;;;3.38;0.95;;;11.80;14.30;;;;;;5094349;28;20209;-48
2021/12/26 12:51:18;;;;;;;2.60;0.98;;;11.30;15.20;;;;;;5094470;28;20181;-47
2021/12/26 12:54:17;;;;;;;1.30;0.73;;;11.10;17.30;;;;;;5095280;28;20190;-48
2021/12/26 12:56:45;;;;;;;2.00;1.25;;;11.00;17.00;;;;;;5095412;28;20182;-48
2021/12/26 12:59:20;;;;;;;2.47;1.17;;;11.00;14.20;;;;;;5095297;28;20239;-48
2021/12/26 13:01:59;;;;;;;1.85;0.60;;;11.50;16.60;;;;;;5095067;28;20164;-48
2021/12/26 13:04:42;;;;;;;3.15;1.50;;;12.20;15.50;;;;;;5095224;28;20163;-48